F/V Mare Liberum — FVHW — position and weather

sailwx.info

Track history (hours):
 
Tides and Currents Weather Stations Pressure Air Temp Water Temp Dewpoint Dewpoint Depression Visibility Wind Speed Wind Dir Waves Ship Positions

F/V Mare Liberum

Last reported at 2016-Jun-27 18:32 UTC. Time now 2016-Jun-27 18:39 UTC.
Position N 47°02' W 002°35'.

Length 21 m.

Type: Fishing. MMSI: 227426000.

Date/timePositionNaut miles runAvg speedWind from/ knotsBaromVisibWave heightAir tempDewpointWater temp
2016-Jun-27 18:32N 47°02' W 002°35'1110.4
2016-Jun-27 17:30N 47°03' W 002°51'1010.5
2016-Jun-27 16:33N 47°04' W 003°05'1 1.3
2016-Jun-27 15:30N 47°03' W 003°07'3 2.7
2016-Jun-27 14:33N 47°01' W 003°10'1 1.2
2016-Jun-27 13:33N 47°02' W 003°10'1 1.2
2016-Jun-27 12:33N 47°01' W 003°09'3 2.8
2016-Jun-27 11:33N 47°04' W 003°07'1 1.1
2016-Jun-27 10:33N 47°03' W 003°06'3 3.5
2016-Jun-27 09:33N 47°03' W 003°11'2 2.2
2016-Jun-27 08:33N 47°01' W 003°10'2 2.5
2016-Jun-27 07:33N 47°03' W 003°09'2 2.0
2016-Jun-27 06:30N 47°01' W 003°08'1 1.2
2016-Jun-27 05:33N 47°02' W 003°08'3 3.2
2016-Jun-27 04:33N 47°01' W 003°04'1 1.0
2016-Jun-27 03:33N 47°00' W 003°03'0 0.3
2016-Jun-27 02:33N 47°00' W 003°03'0 0.0
2016-Jun-27 01:33N 47°00' W 003°03'0 0.0
2016-Jun-27 00:33N 47°00' W 003°03'0 0.0
2016-Jun-26 23:33N 47°00' W 003°03'0 0.1
2016-Jun-26 22:33N 47°00' W 003°03'0 0.1
2016-Jun-26 21:33N 47°00' W 003°03'0 0.0
2016-Jun-26 20:33N 47°00' W 003°03'0 0.0
2016-Jun-26 19:33N 47°00' W 003°03'0 0.0
2016-Jun-26 18:33N 47°00' W 003°03'0 0.0
2016-Jun-26 17:33N 47°00' W 003°03'1 1.0
2016-Jun-26 16:33N 47°00' W 003°05'3 2.3
2016-Jun-26 15:09N 46°58' W 003°08'1 2.2
2016-Jun-26 14:30N 46°59' W 003°08'4 3.4
2016-Jun-26 13:24N 47°00' W 003°03'1 0.8
2016-Jun-26 12:33N 47°01' W 003°04'4 3.1
2016-Jun-26 11:24N 46°58' W 003°07'2 2.4
2016-Jun-26 10:33N 46°60' W 003°08'1 0.4
2016-Jun-26 08:21N 46°59' W 003°07'1 1.7
2016-Jun-26 07:33N 46°60' W 003°09'2 1.2
2016-Jun-26 06:18N 46°58' W 003°09'3 0.7
2016-Jun-26 02:27N 46°57' W 003°12'0 0.3
2016-Jun-26 01:27N 46°57' W 003°13'10 4.4
2016-Jun-25 23:06N 46°59' W 002°58'4 7.6
2016-Jun-25 22:33N 46°59' W 002°51'8 7.3
2016-Jun-25 21:25N 47°00' W 002°39'6 6.8
2016-Jun-25 20:33N 47°00' W 002°31'7 6.5
2016-Jun-25 19:33N 47°01' W 002°21'2 2.4
2016-Jun-25 18:33N 47°01' W 002°18'0 0.5
2016-Jun-25 17:33N 47°02' W 002°18'1510.6
2016-Jun-25 16:08N 47°01' W 002°40'711.2
2016-Jun-25 15:32N 47°01' W 002°50'1010.2
2016-Jun-25 14:33N 47°01' W 003°05'5 4.6
2016-Jun-25 13:33N 47°03' W 003°11'2 2.2
2016-Jun-25 12:33N 47°05' W 003°10'1 0.8
2016-Jun-25 11:33N 47°05' W 003°10'3 2.8
2016-Jun-25 10:33N 47°03' W 003°10'2 1.8
2016-Jun-25 09:33N 47°02' W 003°13'2 2.3
2016-Jun-25 08:33N 47°05' W 003°13'3 2.3
2016-Jun-25 07:27N 47°03' W 003°16'3 2.5
2016-Jun-25 06:27N 47°00' W 003°15'1 0.2
2016-Jun-25 01:27N 47°00' W 003°14'0 0.2
2016-Jun-25 00:33N 47°00' W 003°14'0 0.1
2016-Jun-24 23:33N 47°00' W 003°14'0 0.0
2016-Jun-24 22:15N 47°00' W 003°14'0 0.1
2016-Jun-24 20:09N 47°00' W 003°14'0 0.1
2016-Jun-24 19:15N 47°00' W 003°14'0 0.0
2016-Jun-24 18:33N 47°00' W 003°14'0 0.1
2016-Jun-24 17:24N 47°01' W 003°14'4 4.2
2016-Jun-24 16:33N 47°02' W 003°09'4 3.7
2016-Jun-24 15:30N 47°05' W 003°13'2 2.0
2016-Jun-24 14:24N 47°03' W 003°13'2 2.1
2016-Jun-24 13:27N 47°01' W 003°12'3 3.3
2016-Jun-24 12:29N 46°59' W 003°08'1 0.6
2016-Jun-24 11:27N 46°60' W 003°07'6 6.7
2016-Jun-24 10:30N 47°06' W 003°11'2 1.9
2016-Jun-24 09:33N 47°04' W 003°10'2 2.0
2016-Jun-24 08:33N 47°06' W 003°11'2 2.0
2016-Jun-24 07:30N 47°04' W 003°11'2 0.5
2016-Jun-24 04:33N 47°05' W 003°13'0 0.0
2016-Jun-24 03:33N 47°05' W 003°13'0 0.0
2016-Jun-24 02:33N 47°05' W 003°13'0 0.0
2016-Jun-24 01:33N 47°05' W 003°13'0 0.0
2016-Jun-24 00:33N 47°05' W 003°13'0 0.1
2016-Jun-23 23:33N 47°05' W 003°13'0 0.0
2016-Jun-23 22:33N 47°05' W 003°13'0 0.1
2016-Jun-23 21:33N 47°05' W 003°13'0 0.1
2016-Jun-23 20:24N 47°05' W 003°13'0 0.0
2016-Jun-23 19:33N 47°05' W 003°13'0 0.1
2016-Jun-23 18:33N 47°05' W 003°13'0 0.1
2016-Jun-23 17:27N 47°05' W 003°13'2 2.4
2016-Jun-23 16:33N 47°04' W 003°10'2 2.0
2016-Jun-23 15:33N 47°04' W 003°12'3 2.3
2016-Jun-23 14:15N 47°02' W 003°11'4 5.6
2016-Jun-23 13:33N 46°58' W 003°09'1 0.6
2016-Jun-23 12:33N 46°59' W 003°08'5 4.3
2016-Jun-23 11:24N 47°01' W 003°14'3 2.4
2016-Jun-23 10:12N 47°04' W 003°15'17 3.7
2016-Jun-23 05:33N 47°01' W 002°50'8 7.2
2016-Jun-23 04:25N 47°01' W 002°38'6 6.9
2016-Jun-23 03:33N 47°01' W 002°30'7 6.7
2016-Jun-23 02:33N 47°02' W 002°20'1 1.3
2016-Jun-23 01:33N 47°01' W 002°18'0 0.0
2016-Jun-23 00:33N 47°01' W 002°18'0 0.0
2016-Jun-22 23:33N 47°01' W 002°18'0 0.0
2016-Jun-22 22:33N 47°01' W 002°18'0 0.0
2016-Jun-22 21:34N 47°01' W 002°18'0 0.0
2016-Jun-22 20:33N 47°01' W 002°18'0 0.0
2016-Jun-22 19:33N 47°01' W 002°18'0 0.0
2016-Jun-22 18:33N 47°01' W 002°18'0 0.0
2016-Jun-22 17:32N 47°01' W 002°18'0 0.0
2016-Jun-22 16:33N 47°01' W 002°18'0 0.0
2016-Jun-22 15:33N 47°01' W 002°18'0 0.0
2016-Jun-22 14:33N 47°01' W 002°18'0 0.0
2016-Jun-22 13:33N 47°01' W 002°18'0 0.0
2016-Jun-22 12:33N 47°01' W 002°18'0 0.0
2016-Jun-22 11:33N 47°01' W 002°18'0 0.0
2016-Jun-22 10:33N 47°01' W 002°18'0 0.0
2016-Jun-22 09:33N 47°01' W 002°18'0 0.0
2016-Jun-22 08:33N 47°01' W 002°18'0 0.0
2016-Jun-22 07:32N 47°01' W 002°18'0 0.0
2016-Jun-22 06:34N 47°01' W 002°18'0 0.0
2016-Jun-22 05:33N 47°01' W 002°18'0 0.1
2016-Jun-22 04:33N 47°02' W 002°18'0 0.1
2016-Jun-22 03:11N 47°02' W 002°18'2 3.4
2016-Jun-22 02:33N 47°01' W 002°21'9 6.8
2016-Jun-22 01:15N 47°01' W 002°34'5 7.0
2016-Jun-22 00:32N 47°01' W 002°41'6 6.4
2016-Jun-21 23:32N 47°01' W 002°51'6 5.9
2016-Jun-21 22:33N 47°00' W 002°59'5 5.3
2016-Jun-21 21:33N 47°00' W 003°07'3 3.2
2016-Jun-21 20:32N 47°00' W 003°12'6 5.3
2016-Jun-21 19:30N 47°05' W 003°16'2 2.1
2016-Jun-21 18:33N 47°03' W 003°16'3 2.1
2016-Jun-21 17:06N 47°01' W 003°12'4 6.7
2016-Jun-21 16:33N 47°04' W 003°13'1 0.6
2016-Jun-21 15:33N 47°04' W 003°13'2 2.1
2016-Jun-21 14:33N 47°02' W 003°12'3 3.2
2016-Jun-21 13:33N 47°05' W 003°14'2 1.7
2016-Jun-21 12:33N 47°03' W 003°13'1 1.2
2016-Jun-21 11:33N 47°04' W 003°12'2 1.7
2016-Jun-21 10:33N 47°06' W 003°11'2 2.1
2016-Jun-21 09:33N 47°05' W 003°14'2 2.3
2016-Jun-21 08:30N 47°03' W 003°13'2 2.1
2016-Jun-21 07:33N 47°01' W 003°13'1 0.4
2016-Jun-21 04:33N 47°02' W 003°14'2 2.2
2016-Jun-21 03:27N 47°01' W 003°10'0 0.1
2016-Jun-21 02:33N 47°01' W 003°10'0 0.1
2016-Jun-21 01:33N 47°01' W 003°10'0 0.0
2016-Jun-21 00:33N 47°01' W 003°10'0 0.0
2016-Jun-20 23:33N 47°01' W 003°10'0 0.0
2016-Jun-20 22:33N 47°01' W 003°10'0 0.0
2016-Jun-20 21:33N 47°01' W 003°10'0 0.1
2016-Jun-20 20:33N 47°01' W 003°10'0 0.0
2016-Jun-20 19:33N 47°01' W 003°10'0 0.0
2016-Jun-20 18:33N 47°01' W 003°10'0 0.0
2016-Jun-20 17:30N 47°01' W 003°10'0 0.2
2016-Jun-20 16:33N 47°01' W 003°10'4 4.4
2016-Jun-20 15:33N 47°05' W 003°14'2 1.8
2016-Jun-20 14:33N 47°03' W 003°14'2 1.9
2016-Jun-20 13:33N 47°01' W 003°14'2 1.5
2016-Jun-20 12:30N 47°02' W 003°15'1 0.7
2016-Jun-20 11:30N 47°03' W 003°15'2 2.2
2016-Jun-20 10:33N 47°01' W 003°14'3 2.9
2016-Jun-20 09:30N 47°04' W 003°16'1 1.0
2016-Jun-20 08:33N 47°03' W 003°15'2 2.2
2016-Jun-20 07:33N 47°01' W 003°15'5 4.9
2016-Jun-20 06:33N 47°01' W 003°08'5 5.1
2016-Jun-20 05:30N 47°01' W 002°60'5 5.1
2016-Jun-20 04:33N 47°01' W 002°53'11 5.5
2016-Jun-20 02:33N 47°01' W 002°37'5 5.3
2016-Jun-20 01:33N 47°01' W 002°29'5 5.3
2016-Jun-20 00:33N 47°01' W 002°21'2 2.1
2016-Jun-19 23:33N 47°01' W 002°18'0 0.0
2016-Jun-19 22:33N 47°01' W 002°18'0 0.0
2016-Jun-19 21:33N 47°01' W 002°18'0 0.0
2016-Jun-19 20:33N 47°01' W 002°18'0 0.0
2016-Jun-19 19:33N 47°01' W 002°18'0 0.0
2016-Jun-19 18:33N 47°01' W 002°18'0 0.0
2016-Jun-19 17:33N 47°01' W 002°18'0 0.0
2016-Jun-19 16:33N 47°01' W 002°18'0 0.0
2016-Jun-19 15:33N 47°01' W 002°18'0 0.0
2016-Jun-19 14:24N 47°01' W 002°18'0 0.0
2016-Jun-19 13:33N 47°01' W 002°18'0 0.0
2016-Jun-19 12:24N 47°01' W 002°18'0 0.0
2016-Jun-19 11:32N 47°01' W 002°18'0 0.0
2016-Jun-19 10:33N 47°01' W 002°18'0 0.0
2016-Jun-19 09:34N 47°01' W 002°18'0 0.0
2016-Jun-19 08:33N 47°01' W 002°18'0 0.0
2016-Jun-19 07:34N 47°01' W 002°18'0 0.0
2016-Jun-19 06:33N 47°01' W 002°18'0 0.0
2016-Jun-19 05:29N 47°01' W 002°18'0 0.0
2016-Jun-19 04:33N 47°01' W 002°18'0 0.0
2016-Jun-19 03:33N 47°01' W 002°18'0 0.0
2016-Jun-19 02:33N 47°01' W 002°18'0 0.0
2016-Jun-19 01:34N 47°01' W 002°18'0 0.0
2016-Jun-19 00:33N 47°01' W 002°18'0 0.0
2016-Jun-18 23:33N 47°01' W 002°18'0 0.0
2016-Jun-18 22:33N 47°01' W 002°18'0 0.0
2016-Jun-18 21:33N 47°01' W 002°18'0 0.0
2016-Jun-18 20:33N 47°01' W 002°18'0 0.0
2016-Jun-18 19:33N 47°01' W 002°18'0 0.0
2016-Jun-18 18:33N 47°01' W 002°18'0 0.0
2016-Jun-18 17:34N 47°01' W 002°18'0 0.0
2016-Jun-18 16:33N 47°01' W 002°18'0 0.0
2016-Jun-18 15:33N 47°01' W 002°18'0 0.0
2016-Jun-18 14:33N 47°01' W 002°18'0 0.0
2016-Jun-18 13:34N 47°01' W 002°18'0 0.0
2016-Jun-18 12:34N 47°01' W 002°18'0 0.0
2016-Jun-18 11:34N 47°01' W 002°18'0 0.0
2016-Jun-18 10:33N 47°01' W 002°18'0 0.0
2016-Jun-18 09:33N 47°01' W 002°18'0 0.0
2016-Jun-18 08:33N 47°01' W 002°18'0 0.0
2016-Jun-18 07:33N 47°01' W 002°18'0 0.0
2016-Jun-18 06:34N 47°01' W 002°18'0 0.0
2016-Jun-18 05:33N 47°01' W 002°18'0 0.0
2016-Jun-18 04:33N 47°01' W 002°18'0 0.0
2016-Jun-18 03:33N 47°01' W 002°18'0 0.0
2016-Jun-18 02:33N 47°01' W 002°18'0 0.0
2016-Jun-18 01:33N 47°01' W 002°18'0 0.0
2016-Jun-18 00:33N 47°01' W 002°18'0 0.1
2016-Jun-17 23:33N 47°02' W 002°18'2 2.1
2016-Jun-17 22:33N 47°01' W 002°21'11 8.5
2016-Jun-17 21:17N 47°01' W 002°37'6 8.0
2016-Jun-17 20:31N 47°01' W 002°46'7 6.9
2016-Jun-17 19:33N 47°00' W 002°56'6 6.1
2016-Jun-17 18:33N 47°00' W 003°05'  
Track history (hours):
 
Tides and Currents Weather Stations Pressure Air Temp Water Temp Dewpoint Dewpoint Depression Visibility Wind Speed Wind Dir Waves Ship Positions

F/V Mare Liberum

Last reported at 2016-Jun-27 18:32 UTC. Time now 2016-Jun-27 18:39 UTC.
Position N 47°02' W 002°35'.

Length 21 m.

Type: Fishing. MMSI: 227426000.

Date/timePositionNaut miles runAvg speedWind from/ knotsBaromVisibWave heightAir tempDewpointWater temp
2016-Jun-27 18:32N 47°02' W 002°35'1110.4
2016-Jun-27 17:30N 47°03' W 002°51'1010.5
2016-Jun-27 16:33N 47°04' W 003°05'1 1.3
2016-Jun-27 15:30N 47°03' W 003°07'3 2.7
2016-Jun-27 14:33N 47°01' W 003°10'1 1.2
2016-Jun-27 13:33N 47°02' W 003°10'1 1.2
2016-Jun-27 12:33N 47°01' W 003°09'3 2.8
2016-Jun-27 11:33N 47°04' W 003°07'1 1.1
2016-Jun-27 10:33N 47°03' W 003°06'3 3.5
2016-Jun-27 09:33N 47°03' W 003°11'2 2.2
2016-Jun-27 08:33N 47°01' W 003°10'2 2.5
2016-Jun-27 07:33N 47°03' W 003°09'2 2.0
2016-Jun-27 06:30N 47°01' W 003°08'1 1.2
2016-Jun-27 05:33N 47°02' W 003°08'3 3.2
2016-Jun-27 04:33N 47°01' W 003°04'1 1.0
2016-Jun-27 03:33N 47°00' W 003°03'0 0.3
2016-Jun-27 02:33N 47°00' W 003°03'0 0.0
2016-Jun-27 01:33N 47°00' W 003°03'0 0.0
2016-Jun-27 00:33N 47°00' W 003°03'0 0.0
2016-Jun-26 23:33N 47°00' W 003°03'0 0.1
2016-Jun-26 22:33N 47°00' W 003°03'0 0.1
2016-Jun-26 21:33N 47°00' W 003°03'0 0.0
2016-Jun-26 20:33N 47°00' W 003°03'0 0.0
2016-Jun-26 19:33N 47°00' W 003°03'0 0.0
2016-Jun-26 18:33N 47°00' W 003°03'0 0.0
2016-Jun-26 17:33N 47°00' W 003°03'1 1.0
2016-Jun-26 16:33N 47°00' W 003°05'3 2.3
2016-Jun-26 15:09N 46°58' W 003°08'1 2.2
2016-Jun-26 14:30N 46°59' W 003°08'4 3.4
2016-Jun-26 13:24N 47°00' W 003°03'1 0.8
2016-Jun-26 12:33N 47°01' W 003°04'4 3.1
2016-Jun-26 11:24N 46°58' W 003°07'2 2.4
2016-Jun-26 10:33N 46°60' W 003°08'1 0.4
2016-Jun-26 08:21N 46°59' W 003°07'1 1.7
2016-Jun-26 07:33N 46°60' W 003°09'2 1.2
2016-Jun-26 06:18N 46°58' W 003°09'3 0.7
2016-Jun-26 02:27N 46°57' W 003°12'0 0.3
2016-Jun-26 01:27N 46°57' W 003°13'10 4.4
2016-Jun-25 23:06N 46°59' W 002°58'4 7.6
2016-Jun-25 22:33N 46°59' W 002°51'8 7.3
2016-Jun-25 21:25N 47°00' W 002°39'6 6.8
2016-Jun-25 20:33N 47°00' W 002°31'7 6.5
2016-Jun-25 19:33N 47°01' W 002°21'2 2.4
2016-Jun-25 18:33N 47°01' W 002°18'0 0.5
2016-Jun-25 17:33N 47°02' W 002°18'1510.6
2016-Jun-25 16:08N 47°01' W 002°40'711.2
2016-Jun-25 15:32N 47°01' W 002°50'1010.2
2016-Jun-25 14:33N 47°01' W 003°05'5 4.6
2016-Jun-25 13:33N 47°03' W 003°11'2 2.2
2016-Jun-25 12:33N 47°05' W 003°10'1 0.8
2016-Jun-25 11:33N 47°05' W 003°10'3 2.8
2016-Jun-25 10:33N 47°03' W 003°10'2 1.8
2016-Jun-25 09:33N 47°02' W 003°13'2 2.3
2016-Jun-25 08:33N 47°05' W 003°13'3 2.3
2016-Jun-25 07:27N 47°03' W 003°16'3 2.5
2016-Jun-25 06:27N 47°00' W 003°15'1 0.2
2016-Jun-25 01:27N 47°00' W 003°14'0 0.2
2016-Jun-25 00:33N 47°00' W 003°14'0 0.1
2016-Jun-24 23:33N 47°00' W 003°14'0 0.0
2016-Jun-24 22:15N 47°00' W 003°14'0 0.1
2016-Jun-24 20:09N 47°00' W 003°14'0 0.1
2016-Jun-24 19:15N 47°00' W 003°14'0 0.0
2016-Jun-24 18:33N 47°00' W 003°14'0 0.1
2016-Jun-24 17:24N 47°01' W 003°14'4 4.2
2016-Jun-24 16:33N 47°02' W 003°09'4 3.7
2016-Jun-24 15:30N 47°05' W 003°13'2 2.0
2016-Jun-24 14:24N 47°03' W 003°13'2 2.1
2016-Jun-24 13:27N 47°01' W 003°12'3 3.3
2016-Jun-24 12:29N 46°59' W 003°08'1 0.6
2016-Jun-24 11:27N 46°60' W 003°07'6 6.7
2016-Jun-24 10:30N 47°06' W 003°11'2 1.9
2016-Jun-24 09:33N 47°04' W 003°10'2 2.0
2016-Jun-24 08:33N 47°06' W 003°11'2 2.0
2016-Jun-24 07:30N 47°04' W 003°11'2 0.5
2016-Jun-24 04:33N 47°05' W 003°13'0 0.0
2016-Jun-24 03:33N 47°05' W 003°13'0 0.0
2016-Jun-24 02:33N 47°05' W 003°13'0 0.0
2016-Jun-24 01:33N 47°05' W 003°13'0 0.0
2016-Jun-24 00:33N 47°05' W 003°13'0 0.1
2016-Jun-23 23:33N 47°05' W 003°13'0 0.0
2016-Jun-23 22:33N 47°05' W 003°13'0 0.1
2016-Jun-23 21:33N 47°05' W 003°13'0 0.1
2016-Jun-23 20:24N 47°05' W 003°13'0 0.0
2016-Jun-23 19:33N 47°05' W 003°13'0 0.1
2016-Jun-23 18:33N 47°05' W 003°13'0 0.1
2016-Jun-23 17:27N 47°05' W 003°13'2 2.4
2016-Jun-23 16:33N 47°04' W 003°10'2 2.0
2016-Jun-23 15:33N 47°04' W 003°12'3 2.3
2016-Jun-23 14:15N 47°02' W 003°11'4 5.6
2016-Jun-23 13:33N 46°58' W 003°09'1 0.6
2016-Jun-23 12:33N 46°59' W 003°08'5 4.3
2016-Jun-23 11:24N 47°01' W 003°14'3 2.4
2016-Jun-23 10:12N 47°04' W 003°15'17 3.7
2016-Jun-23 05:33N 47°01' W 002°50'8 7.2
2016-Jun-23 04:25N 47°01' W 002°38'6 6.9
2016-Jun-23 03:33N 47°01' W 002°30'7 6.7
2016-Jun-23 02:33N 47°02' W 002°20'1 1.3
2016-Jun-23 01:33N 47°01' W 002°18'0 0.0
2016-Jun-23 00:33N 47°01' W 002°18'0 0.0
2016-Jun-22 23:33N 47°01' W 002°18'0 0.0
2016-Jun-22 22:33N 47°01' W 002°18'0 0.0
2016-Jun-22 21:34N 47°01' W 002°18'0 0.0
2016-Jun-22 20:33N 47°01' W 002°18'0 0.0
2016-Jun-22 19:33N 47°01' W 002°18'0 0.0
2016-Jun-22 18:33N 47°01' W 002°18'0 0.0
2016-Jun-22 17:32N 47°01' W 002°18'0 0.0
2016-Jun-22 16:33N 47°01' W 002°18'0 0.0
2016-Jun-22 15:33N 47°01' W 002°18'0 0.0
2016-Jun-22 14:33N 47°01' W 002°18'0 0.0
2016-Jun-22 13:33N 47°01' W 002°18'0 0.0
2016-Jun-22 12:33N 47°01' W 002°18'0 0.0
2016-Jun-22 11:33N 47°01' W 002°18'0 0.0
2016-Jun-22 10:33N 47°01' W 002°18'0 0.0
2016-Jun-22 09:33N 47°01' W 002°18'0 0.0
2016-Jun-22 08:33N 47°01' W 002°18'0 0.0
2016-Jun-22 07:32N 47°01' W 002°18'0 0.0
2016-Jun-22 06:34N 47°01' W 002°18'0 0.0
2016-Jun-22 05:33N 47°01' W 002°18'0 0.1
2016-Jun-22 04:33N 47°02' W 002°18'0 0.1
2016-Jun-22 03:11N 47°02' W 002°18'2 3.4
2016-Jun-22 02:33N 47°01' W 002°21'9 6.8
2016-Jun-22 01:15N 47°01' W 002°34'5 7.0
2016-Jun-22 00:32N 47°01' W 002°41'6 6.4
2016-Jun-21 23:32N 47°01' W 002°51'6 5.9
2016-Jun-21 22:33N 47°00' W 002°59'5 5.3
2016-Jun-21 21:33N 47°00' W 003°07'3 3.2
2016-Jun-21 20:32N 47°00' W 003°12'6 5.3
2016-Jun-21 19:30N 47°05' W 003°16'2 2.1
2016-Jun-21 18:33N 47°03' W 003°16'3 2.1
2016-Jun-21 17:06N 47°01' W 003°12'4 6.7
2016-Jun-21 16:33N 47°04' W 003°13'1 0.6
2016-Jun-21 15:33N 47°04' W 003°13'2 2.1
2016-Jun-21 14:33N 47°02' W 003°12'3 3.2
2016-Jun-21 13:33N 47°05' W 003°14'2 1.7
2016-Jun-21 12:33N 47°03' W 003°13'1 1.2
2016-Jun-21 11:33N 47°04' W 003°12'2 1.7
2016-Jun-21 10:33N 47°06' W 003°11'2 2.1
2016-Jun-21 09:33N 47°05' W 003°14'2 2.3
2016-Jun-21 08:30N 47°03' W 003°13'2 2.1
2016-Jun-21 07:33N 47°01' W 003°13'1 0.4
2016-Jun-21 04:33N 47°02' W 003°14'2 2.2
2016-Jun-21 03:27N 47°01' W 003°10'0 0.1
2016-Jun-21 02:33N 47°01' W 003°10'0 0.1
2016-Jun-21 01:33N 47°01' W 003°10'0 0.0
2016-Jun-21 00:33N 47°01' W 003°10'0 0.0
2016-Jun-20 23:33N 47°01' W 003°10'0 0.0
2016-Jun-20 22:33N 47°01' W 003°10'0 0.0
2016-Jun-20 21:33N 47°01' W 003°10'0 0.1
2016-Jun-20 20:33N 47°01' W 003°10'0 0.0
2016-Jun-20 19:33N 47°01' W 003°10'0 0.0
2016-Jun-20 18:33N 47°01' W 003°10'0 0.0
2016-Jun-20 17:30N 47°01' W 003°10'0 0.2
2016-Jun-20 16:33N 47°01' W 003°10'4 4.4
2016-Jun-20 15:33N 47°05' W 003°14'2 1.8
2016-Jun-20 14:33N 47°03' W 003°14'2 1.9
2016-Jun-20 13:33N 47°01' W 003°14'2 1.5
2016-Jun-20 12:30N 47°02' W 003°15'1 0.7
2016-Jun-20 11:30N 47°03' W 003°15'2 2.2
2016-Jun-20 10:33N 47°01' W 003°14'3 2.9
2016-Jun-20 09:30N 47°04' W 003°16'1 1.0
2016-Jun-20 08:33N 47°03' W 003°15'2 2.2
2016-Jun-20 07:33N 47°01' W 003°15'5 4.9
2016-Jun-20 06:33N 47°01' W 003°08'5 5.1
2016-Jun-20 05:30N 47°01' W 002°60'5 5.1
2016-Jun-20 04:33N 47°01' W 002°53'11 5.5
2016-Jun-20 02:33N 47°01' W 002°37'5 5.3
2016-Jun-20 01:33N 47°01' W 002°29'5 5.3
2016-Jun-20 00:33N 47°01' W 002°21'2 2.1
2016-Jun-19 23:33N 47°01' W 002°18'0 0.0
2016-Jun-19 22:33N 47°01' W 002°18'0 0.0
2016-Jun-19 21:33N 47°01' W 002°18'0 0.0
2016-Jun-19 20:33N 47°01' W 002°18'0 0.0
2016-Jun-19 19:33N 47°01' W 002°18'0 0.0
2016-Jun-19 18:33N 47°01' W 002°18'0 0.0
2016-Jun-19 17:33N 47°01' W 002°18'0 0.0
2016-Jun-19 16:33N 47°01' W 002°18'0 0.0
2016-Jun-19 15:33N 47°01' W 002°18'0 0.0
2016-Jun-19 14:24N 47°01' W 002°18'0 0.0
2016-Jun-19 13:33N 47°01' W 002°18'0 0.0
2016-Jun-19 12:24N 47°01' W 002°18'0 0.0
2016-Jun-19 11:32N 47°01' W 002°18'0 0.0
2016-Jun-19 10:33N 47°01' W 002°18'0 0.0
2016-Jun-19 09:34N 47°01' W 002°18'0 0.0
2016-Jun-19 08:33N 47°01' W 002°18'0 0.0
2016-Jun-19 07:34N 47°01' W 002°18'0 0.0
2016-Jun-19 06:33N 47°01' W 002°18'0 0.0
2016-Jun-19 05:29N 47°01' W 002°18'0 0.0
2016-Jun-19 04:33N 47°01' W 002°18'0 0.0
2016-Jun-19 03:33N 47°01' W 002°18'0 0.0
2016-Jun-19 02:33N 47°01' W 002°18'0 0.0
2016-Jun-19 01:34N 47°01' W 002°18'0 0.0
2016-Jun-19 00:33N 47°01' W 002°18'0 0.0
2016-Jun-18 23:33N 47°01' W 002°18'0 0.0
2016-Jun-18 22:33N 47°01' W 002°18'0 0.0
2016-Jun-18 21:33N 47°01' W 002°18'0 0.0
2016-Jun-18 20:33N 47°01' W 002°18'0 0.0
2016-Jun-18 19:33N 47°01' W 002°18'0 0.0
2016-Jun-18 18:33N 47°01' W 002°18'0 0.0
2016-Jun-18 17:34N 47°01' W 002°18'0 0.0
2016-Jun-18 16:33N 47°01' W 002°18'0 0.0
2016-Jun-18 15:33N 47°01' W 002°18'0 0.0
2016-Jun-18 14:33N 47°01' W 002°18'0 0.0
2016-Jun-18 13:34N 47°01' W 002°18'0 0.0
2016-Jun-18 12:34N 47°01' W 002°18'0 0.0
2016-Jun-18 11:34N 47°01' W 002°18'0 0.0
2016-Jun-18 10:33N 47°01' W 002°18'0 0.0
2016-Jun-18 09:33N 47°01' W 002°18'0 0.0
2016-Jun-18 08:33N 47°01' W 002°18'0 0.0
2016-Jun-18 07:33N 47°01' W 002°18'0 0.0
2016-Jun-18 06:34N 47°01' W 002°18'0 0.0
2016-Jun-18 05:33N 47°01' W 002°18'0 0.0
2016-Jun-18 04:33N 47°01' W 002°18'0 0.0
2016-Jun-18 03:33N 47°01' W 002°18'0 0.0
2016-Jun-18 02:33N 47°01' W 002°18'0 0.0
2016-Jun-18 01:33N 47°01' W 002°18'0 0.0
2016-Jun-18 00:33N 47°01' W 002°18'0 0.1
2016-Jun-17 23:33N 47°02' W 002°18'2 2.1
2016-Jun-17 22:33N 47°01' W 002°21'11 8.5
2016-Jun-17 21:17N 47°01' W 002°37'6 8.0
2016-Jun-17 20:31N 47°01' W 002°46'7 6.9
2016-Jun-17 19:33N 47°00' W 002°56'6 6.1
2016-Jun-17 18:33N 47°00' W 003°05'  

Dump ship's entire track history